Latest Weather Observations for Red Rocks Point

IDW60801

Issued at 3:33 am WST Wednesday 7 December 2022 (issued every 10 minutes, with the page automatically refreshed every 10 minutes)

About weather observations | Map of weather stations | Latest weather observations for WA | Other Formats
Station Details ID: 011053 Name: RED ROCKS POINT Lat: -32.20 Lon: 127.53 Height: 3.1 m
Data from the previous 72 hours. | See also: Recent months at Red Rocks Point
Date/Time
WST
Temp
°C
App
Temp
°C
Dew
Point
°C
Rel
Hum
%
Delta-T
°C
Wind Press
QNH
hPa
Press
MSL
hPa
Rain since
9am
mm
Dir  Spd
km/h
Gust
km/h
Spd
kts
Gust
kts
07/03:30am 16.4 11.1 10.0 66 3.4 S 28 33 15 18 1016.5 1016.5 0.0
07/03:00am 16.6 10.4 9.3 62 3.8 S 32 37 17 20 1016.2 1016.2 0.0
07/02:30am 16.4 11.0 9.6 64 3.5 S 28 35 15 19 1016.0 1016.0 0.0
07/02:00am 16.8 11.3 10.6 67 3.3 SSE 30 35 16 19 1015.8 1015.8 0.0
07/01:30am 16.6 11.3 11.3 71 2.9 S 30 37 16 20 1015.8 1015.8 0.0
07/01:00am 16.6 11.3 11.1 70 3.0 S 30 35 16 19 1015.9 1015.9 0.0
07/12:30am 16.5 10.4 10.6 68 3.1 S 33 41 18 22 1015.9 1015.9 0.0
07/12:00am 16.7 11.3 10.8 68 3.1 S 30 37 16 20 1016.0 1016.0 0.0
 
Date/Time
WST
Temp
°C
App
Temp
°C
Dew
Point
°C
Rel
Hum
%
Delta-T
°C
Wind Press
QNH
hPa
Press
MSL
hPa
Rain since
9am
mm
Dir  Spd
km/h
Gust
km/h
Spd
kts
Gust
kts
06/11:30pm 16.6 11.9 12.0 74 2.5 S 28 37 15 20 1016.3 1016.3 0.0
06/11:00pm 16.7 11.1 11.4 71 2.9 S 32 39 17 21 1016.3 1016.3 0.0
06/10:30pm 17.0 11.1 11.1 68 3.2 S 33 41 18 22 1016.1 1016.1 0.0
06/10:00pm 17.2 13.2 12.9 76 2.4 S 26 33 14 18 1016.0 1016.0 0.0
06/09:30pm 16.9 12.4 12.6 76 2.4 S 28 33 15 18 1015.8 1015.8 0.0
06/09:00pm 17.1 11.8 12.4 74 2.6 S 32 39 17 21 1015.5 1015.5 0.0
06/08:30pm 16.9 11.5 12.2 74 2.6 S 32 37 17 20 1015.3 1015.3 0.0
06/08:00pm 17.1 11.8 12.4 74 2.6 S 32 39 17 21 1015.0 1015.0 0.0
06/07:30pm 17.1 10.8 12.2 73 2.7 S 37 43 20 23 1014.5 1014.5 0.0
06/07:00pm 17.1 11.1 12.2 73 2.7 S 35 43 19 23 1014.2 1014.2 0.0
06/06:30pm 17.3 11.5 12.6 74 2.6 S 35 41 19 22 1013.8 1013.8 0.0
06/06:00pm 17.5 11.8 13.0 75 2.5 S 35 41 19 22 1013.4 1013.4 0.0
06/05:30pm 17.7 12.1 13.2 75 2.5 S 35 43 19 23 1012.8 1012.8 0.0
06/05:00pm 18.0 13.0 13.5 75 2.5 S 32 41 17 22 1012.5 1012.5 0.0
06/04:30pm 18.5 13.3 13.4 72 2.9 S 33 39 18 21 1012.2 1012.2 0.0
06/04:00pm 18.5 14.0 13.8 74 2.7 S 30 37 16 20 1011.8 1011.8 0.0
06/03:30pm 19.0 13.9 13.8 72 3.0 S 33 39 18 21 1011.6 1011.6 0.0
06/03:00pm 19.3 14.3 13.9 71 3.1 S 33 39 18 21 1011.3 1011.3 0.0
06/02:30pm 19.1 14.8 14.4 74 2.7 S 30 35 16 19 1011.2 1011.2 0.0
06/02:00pm 20.0 15.8 14.6 71 3.2 S 30 35 16 19 1010.8 1010.8 0.0
06/01:30pm 20.8 16.9 15.4 71 3.2 S 30 35 16 19 1010.6 1010.6 0.0
06/01:00pm 19.8 15.9 14.4 71 3.1 S 28 33 15 18 1010.6 1010.6 0.0
06/12:30pm 20.4 16.8 15.2 72 3.1 S 28 33 15 18 1010.6 1010.6 0.0
06/12:00pm 20.6 16.8 14.7 69 3.5 S 28 33 15 18 1010.6 1010.6 0.0
06/11:30am 20.2 16.2 15.2 73 2.9 S 30 35 16 19 1010.5 1010.5 0.0
06/11:00am 19.2 14.9 15.3 78 2.3 S 32 39 17 21 1010.5 1010.5 0.0
06/10:30am 19.5 15.0 15.0 75 2.6 S 32 35 17 19 1010.3 1010.3 0.0
06/10:00am 18.9 14.4 15.0 78 2.3 SSE 32 35 17 19 1010.4 1010.4 0.0
06/09:30am 18.3 14.2 14.8 80 2.0 SSE 30 35 16 19 1010.6 1010.6 0.0
06/09:00am 18.2 14.6 15.3 83 1.7 SSE 28 33 15 18 1010.6 1010.6 0.2
06/08:30am 18.3 14.8 15.4 83 1.7 SSE 28 32 15 17 1010.5 1010.5 0.2
06/08:00am 18.1 14.5 15.2 83 1.7 SSE 28 32 15 17 1010.7 1010.7 0.2
06/07:30am 18.0 14.8 15.3 84 1.6 SE 26 32 14 17 1010.6 1010.6 0.2
06/07:00am 17.9 14.3 15.2 84 1.6 SE 28 33 15 18 1010.4 1010.4 0.2
06/06:30am 17.9 14.7 15.2 84 1.6 SE 26 30 14 16 1010.5 1010.5 0.2
06/06:00am 17.7 14.0 15.0 84 1.6 SE 28 32 15 17 1010.2 1010.2 0.2
06/05:30am 17.7 14.1 15.3 86 1.4 SE 28 33 15 18 1009.6 1009.6 0.2
06/05:00am 17.7 14.0 15.1 85 1.5 SE 28 32 15 17 1009.7 1009.7 0.2
06/04:30am 17.5 13.5 15.1 86 1.4 ESE 30 33 16 18 1009.0 1009.0 0.2
06/04:00am 17.4 13.3 15.0 86 1.4 ESE 30 35 16 19 1008.5 1008.5 0.2
06/03:30am 17.3 12.8 14.9 86 1.4 ESE 32 35 17 19 1008.4 1008.4 0.2
06/03:00am 17.3 13.2 14.8 85 1.4 ESE 30 35 16 19 1008.6 1008.6 0.2
06/02:30am 17.3 12.8 14.9 86 1.4 ESE 32 37 17 20 1008.6 1008.6 0.2
06/02:00am 17.4 12.9 14.9 85 1.4 ESE 32 37 17 20 1009.3 1009.3 0.2
06/01:30am 17.4 12.6 14.7 84 1.6 ESE 33 37 18 20 1009.5 1009.5 0.2
06/01:00am 17.3 12.7 14.6 84 1.6 ESE 32 39 17 21 1010.0 1010.0 0.2
06/12:30am 17.4 13.2 14.7 84 1.6 ESE 30 35 16 19 1010.7 1010.7 0.2
06/12:00am 17.6 13.5 15.0 85 1.5 ESE 30 35 16 19 1010.8 1010.8 0.2
 
Date/Time
WST
Temp
°C
App
Temp
°C
Dew
Point
°C
Rel
Hum
%
Delta-T
°C
Wind Press
QNH
hPa
Press
MSL
hPa
Rain since
9am
mm
Dir  Spd
km/h
Gust
km/h
Spd
kts
Gust
kts
05/11:30pm 17.4 12.8 14.5 83 1.7 SE 32 39 17 21 1011.3 1011.3 0.2
05/11:00pm 17.5 12.9 14.6 83 1.7 SE 32 37 17 20 1011.3 1011.3 0.2
05/10:30pm 17.7 13.6 14.8 83 1.7 SE 30 33 16 18 1012.2 1012.2 0.2
05/10:00pm 17.9 13.4 15.0 83 1.7 SE 32 39 17 21 1012.3 1012.3 0.2
05/09:30pm 17.8 13.0 14.7 82 1.8 SE 33 39 18 21 1012.0 1012.0 0.2
05/09:00pm 17.8 12.6 14.5 81 1.9 ESE 35 41 19 22 1011.8 1011.8 0.2
05/08:30pm 17.7 12.8 14.2 80 2.0 ESE 33 39 18 21 1012.0 1012.0 0.2
05/08:00pm 18.0 12.9 14.9 82 1.8 ESE 35 41 19 22 1011.9 1011.9 0.2
05/07:30pm 18.1 12.7 15.0 82 1.8 E 37 44 20 24 1011.4 1011.4 0.2
05/07:00pm 18.2 11.6 14.9 81 1.9 E 43 48 23 26 1010.8 1010.8 0.2
05/06:30pm 18.1 11.3 14.8 81 1.9 E 44 52 24 28 1010.6 1010.6 0.2
05/06:00pm 18.2 11.6 14.9 81 1.9 E 43 52 23 28 1010.6 1010.6 0.2
05/05:30pm 18.4 11.5 15.5 83 1.7 E 46 54 25 29 1010.4 1010.4 0.2
05/05:00pm 18.4 12.0 15.3 82 1.8 E 43 54 23 29 1010.5 1010.5 0.2
05/04:30pm 18.5 11.8 15.0 80 2.0 ESE 44 54 24 29 1010.5 1010.5 0.2
05/04:00pm 18.8 12.3 15.7 82 1.8 E 44 54 24 29 1010.4 1010.4 0.2
05/03:30pm 19.1 12.6 15.6 80 2.1 E 44 54 24 29 1010.6 1010.6 0.2
05/03:00pm 19.5 13.3 15.8 79 2.2 E 43 52 23 28 1011.1 1011.1 0.2
05/02:30pm 19.7 13.2 15.6 77 2.4 E 44 52 24 28 1011.3 1011.3 0.2
05/02:00pm 19.8 13.2 15.4 76 2.6 E 44 56 24 30 1011.6 1011.6 0.2
05/01:30pm 19.7 13.3 15.4 76 2.5 E 43 50 23 27 1012.2 1012.2 0.2
05/01:00pm 19.8 12.8 15.4 76 2.6 E 46 56 25 30 1012.7 1012.7 0.2
05/12:30pm 19.8 12.9 15.7 77 2.4 E 46 57 25 31 1012.5 1012.5 0.2
05/12:00pm 19.7 13.2 15.6 77 2.4 E 44 54 24 29 1013.2 1013.2 0.2
05/11:30am 19.8 13.4 15.9 78 2.3 E 44 52 24 28 1013.3 1013.3 0.0
05/11:00am 19.5 13.2 15.6 78 2.3 E 43 52 23 28 1014.0 1014.0 0.0
05/10:30am 20.1 13.6 15.5 75 2.7 E 44 56 24 30 1014.1 1014.1 0.0
05/10:00am 19.6 13.8 16.1 80 2.1 ESE 41 48 22 26 1014.9 1014.9 0.0
05/09:30am 18.8 13.0 15.9 83 1.7 ESE 41 48 22 26 1015.2 1015.2 0.0
05/09:00am 18.3 13.0 15.2 82 1.8 ESE 37 44 20 24 1016.0 1016.0 0.0
05/08:30am 18.7 13.1 15.6 82 1.8 ESE 39 46 21 25 1015.3 1015.3 0.0
05/08:00am 18.5 12.6 15.6 83 1.7 ESE 41 46 22 25 1015.6 1015.6 0.0
05/07:30am 18.7 12.9 15.9 84 1.7 ESE 41 48 22 26 1015.3 1015.3 0.0
05/07:00am 18.4 12.0 15.3 82 1.8 ESE 43 52 23 28 1015.2 1015.2 0.0
05/06:30am 18.2 12.9 15.3 83 1.7 ESE 37 44 20 24 1015.7 1015.7 0.0
05/06:00am 18.3 13.3 16.1 87 1.3 ESE 37 44 20 24 1015.8 1015.8 0.0
05/05:30am 18.1 13.6 15.5 85 1.5 E 33 41 18 22 1016.1 1016.1 0.0
05/05:26am 18.0 13.1 15.4 85 1.5 E 35 43 19 23 1016.6 1016.6 0.0
05/05:00am 17.8 11.1 15.2 85 1.5 ENE 44 56 24 30 1014.6 1014.6 0.0
05/04:55am 17.9 11.7 14.8 82 1.8 ENE 41 54 22 29 1014.7 1014.7 0.0
05/04:40am 17.8 12.4 14.9 83 1.7 E 37 46 20 25 1016.7 1016.7 0.0
05/04:30am 17.8 10.8 15.2 85 1.5 E 46 54 25 29 1014.6 1014.6 0.0
05/04:14am 17.8 11.3 15.2 85 1.5 E 43 52 23 28 1014.1 1014.1 0.0
05/04:00am 17.7 12.6 14.8 83 1.7 SE 35 43 19 23 1016.2 1016.2 0.0
05/03:30am 17.9 13.0 15.2 84 1.6 SE 35 39 19 21 1016.2 1016.2 0.0
05/03:00am 17.7 13.3 15.1 85 1.5 ESE 32 37 17 20 1015.5 1015.5 0.0
05/02:30am 17.8 14.6 15.2 85 1.5 SE 26 30 14 16 1016.5 1016.5 0.0
05/02:00am 17.7 14.2 14.6 82 1.8 SE 26 30 14 16 1016.4 1016.4 0.0
05/01:30am 17.9 14.7 15.3 85 1.5 ESE 26 30 14 16 1016.3 1016.3 0.0
05/01:00am 17.8 14.5 14.9 83 1.7 ESE 26 30 14 16 1015.8 1015.8 0.0
05/12:30am 18.0 13.7 15.4 85 1.5 ESE 32 35 17 19 1015.2 1015.2 0.0
05/12:00am 17.8 13.1 14.9 83 1.7 ESE 33 39 18 21 1014.6 1014.6 0.0
 
Date/Time
WST
Temp
°C
App
Temp
°C
Dew
Point
°C
Rel
Hum
%
Delta-T
°C
Wind Press
QNH
hPa
Press
MSL
hPa
Rain since
9am
mm
Dir  Spd
km/h
Gust
km/h
Spd
kts
Gust
kts
04/11:30pm 18.0 12.6 15.1 83 1.7 E 37 44 20 24 1014.4 1014.4 0.0
04/11:00pm 18.0 13.0 15.1 83 1.7 ESE 35 41 19 22 1015.4 1015.4 0.0
04/10:30pm 18.1 12.5 15.4 84 1.6 ESE 39 46 21 25 1015.5 1015.5 0.0
04/10:00pm 17.9 12.6 15.2 84 1.6 ESE 37 46 20 25 1015.8 1015.8 0.0
04/09:30pm 18.0 12.7 15.4 85 1.5 ESE 37 43 20 23 1016.3 1016.3 0.0
04/09:00pm 17.9 13.0 15.3 85 1.5 ESE 35 39 19 21 1017.0 1017.0 0.0
04/08:30pm 17.9 12.3 15.5 86 1.4 ESE 39 46 21 25 1016.6 1016.6 0.0
04/08:00pm 17.9 11.9 15.5 86 1.4 ESE 41 46 22 25 1015.6 1015.6 0.0
04/07:30pm 18.1 12.3 15.9 87 1.3 ESE 41 48 22 26 1015.4 1015.4 0.0
04/07:00pm 18.0 11.5 15.6 86 1.4 ESE 44 52 24 28 1014.8 1014.8 0.0
04/06:30pm 18.0 11.6 15.4 85 1.5 ESE 43 52 23 28 1015.9 1015.9 0.0
04/06:00pm 18.0 11.9 15.3 84 1.6 ESE 41 48 22 26 1016.2 1016.2 0.0
04/05:30pm 17.9 12.5 15.9 88 1.2 ESE 39 46 21 25 1015.6 1015.6 0.0
04/05:00pm 18.0 11.6 15.3 84 1.6 ESE 43 52 23 28 1015.9 1015.9 0.0
04/04:30pm 18.0 10.3 15.6 86 1.4 ESE 50 61 27 33 1014.0 1014.0 0.0
04/04:00pm 18.0 12.1 15.6 86 1.4 ESE 41 54 22 29 1014.9 1014.9 0.0
04/03:30pm 17.8 12.5 15.4 86 1.4 ESE 37 46 20 25 1015.8 1015.8 0.0
04/03:00pm 18.2 12.7 15.8 86 1.4 ESE 39 48 21 26 1015.0 1015.0 0.0
04/02:30pm 17.8 13.4 15.6 87 1.3 ESE 33 41 18 22 1015.8 1015.8 0.0
04/02:00pm 18.2 14.9 16.0 87 1.3 SE 28 35 15 19 1016.4 1016.4 0.0
04/01:30pm 18.0 13.2 15.6 86 1.4 ESE 35 43 19 23 1015.5 1015.5 0.0
04/01:00pm 18.1 12.9 15.5 85 1.5 ESE 37 43 20 23 1015.8 1015.8 0.0
04/12:30pm 18.2 13.5 15.8 86 1.4 ESE 35 41 19 22 1015.5 1015.5 0.0
04/12:00pm 18.4 14.1 15.8 85 1.5 ESE 33 43 18 23 1016.4 1016.4 0.0
04/11:30am 18.2 13.8 15.6 85 1.5 SE 33 41 18 22 1016.7 1016.7 0.0
04/11:00am 18.0 13.5 15.4 85 1.5 SSE 33 39 18 21 1016.7 1016.7 0.0
04/10:30am 17.9 13.4 15.5 86 1.4 SSE 33 41 18 22 1016.6 1016.6 0.0
04/10:00am 17.7 13.9 15.7 88 1.2 S 30 35 16 19 1017.6 1017.6 0.0
04/09:42am 17.8 14.6 15.4 86 1.4 SSE 26 32 14 17 1018.0 1018.0 0.0
04/09:30am 18.0 13.8 16.2 89 1.1 SE 33 39 18 21 1015.9 1015.9 0.0
04/09:00am 17.6 13.3 15.8 89 1.1 SE 33 41 18 22 1014.8 1014.8 0.0
04/08:30am 17.8 14.7 15.6 87 1.3 SSE 26 30 14 16 1016.0 1016.0 0.0
04/08:00am 18.1 15.7 15.4 84 1.6 S 22 28 12 15 1017.8 1017.8 0.0
04/07:54am 18.2 15.1 15.5 84 1.6 SSE 26 32 14 17 1017.5 1017.5 0.0
04/07:30am 18.2 14.7 15.6 85 1.5 ESE 28 33 15 18 1015.3 1015.3 0.0
04/07:00am 17.8 14.6 15.2 85 1.5 SE 26 30 14 16 1016.0 1016.0 0.0
04/06:30am 17.4 16.3 15.2 87 1.3 SSW 15 22 8 12 1017.8 1017.8 0.0
04/06:12am 17.9 14.1 15.7 87 1.3 SSE 30 37 16 20 1016.2 1016.2 0.0
04/06:00am 17.6 12.7 15.4 87 1.3 SE 35 43 19 23 1014.1 1014.1 0.0
04/05:42am 17.6 11.2 15.9 90 1.0 SE 44 52 24 28 1012.6 1012.6 0.0
04/05:30am 17.5 13.2 15.3 87 1.3 SSE 32 41 17 22 1014.0 1014.0 0.0
04/05:21am 17.5 13.6 15.5 88 1.2 S 30 35 16 19 1015.4 1015.4 0.0
04/05:00am 17.1 15.5 14.9 87 1.3 SSW 17 22 9 12 1017.4 1017.4 0.0
04/04:44am 17.4 15.9 15.2 87 1.3 SSE 17 22 9 12 1016.4 1016.4 0.0
04/04:30am 17.4 14.9 15.2 87 1.3 SSE 22 32 12 17 1014.4 1014.4 0.0
04/04:00am 17.4 13.9 15.4 88 1.2 SE 28 39 15 21 1012.5 1012.5 0.0

Other formats

Comma delimited format used in spreadsheet applications
http://www.bom.gov.au/fwo/IDW60801/IDW60801.94644.axf

JavaScript Object Notation format (JSON) in row-major order
http://www.bom.gov.au/fwo/IDW60801/IDW60801.94644.json

Data quality

Most of these data are generated automatically and are frequently updated. Quality checks on data are not normally performed. It is possible for incorrect values to appear. Refer to information at About Latest Weather Observations and please check the disclaimer before using these data.